Time;durP1;ratioP1;P1;durP2;ratioP2;P2;SDS_P1;SDS_P2;PMS_P1;PMS_P2;Temp;Humidity;BMP_temperature;BMP_pressure;BME280_temperature;BME280_humidity;BME280_pressure;Samples;Min_cycle;Max_cycle;Signal;HPM_P1;HPM_P2
2021/10/14 00:01:34;;;;;;;2.77;2.67;;;11.50;99.30;;;;;;4897589;29;20426;-91
2021/10/14 00:04:18;;;;;;;11.03;3.97;;;12.30;99.90;;;;;;4898496;29;20466;-91
2021/10/14 00:06:50;;;;;;;6.30;3.30;;;13.20;99.90;;;;;;4887983;29;20172;-91
2021/10/14 00:09:16;;;;;;;2.83;2.70;;;14.20;99.90;;;;;;4897824;29;20464;-90
2021/10/14 00:11:46;;;;;;;6.27;3.47;;;11.80;99.90;;;;;;4899533;29;20422;-90
2021/10/14 00:14:13;;;;;;;3.67;3.33;;;12.10;99.50;;;;;;4875887;29;20436;-91
2021/10/14 00:17:14;;;;;;;5.70;3.70;;;13.40;99.90;;;;;;4863962;29;20504;-90
2021/10/14 00:19:45;;;;;;;3.53;3.33;;;11.90;98.60;;;;;;4900186;29;20481;-92
2021/10/14 00:22:28;;;;;;;7.40;4.10;;;11.80;98.30;;;;;;4899529;29;20474;-90
2021/10/14 00:25:01;;;;;;;3.77;3.47;;;14.50;99.70;;;;;;4897402;29;20446;-91
2021/10/14 00:27:30;;;;;;;4.90;3.80;;;11.90;99.90;;;;;;4898895;29;20445;-91
2021/10/14 00:30:18;;;;;;;4.80;4.10;;;11.70;99.90;;;;;;4883463;29;20447;-91
2021/10/14 00:32:49;;;;;;;4.77;4.47;;;11.80;99.90;;;;;;4895888;29;20484;-90
2021/10/14 00:35:20;;;;;;;5.30;4.90;;;12.50;98.80;;;;;;4899226;29;20454;-91
2021/10/14 00:37:48;;;;;;;4.50;4.20;;;12.30;99.60;;;;;;4895345;29;20492;-91
2021/10/14 00:40:29;;;;;;;8.57;5.43;;;12.00;99.90;;;;;;4885352;29;20417;-92
2021/10/14 00:42:55;;;;;;;5.50;5.10;;;;;;;;;;4900808;29;20521;-90
2021/10/14 00:45:28;;;;;;;9.00;6.27;;;11.70;98.10;;;;;;4901206;29;20417;-93
2021/10/14 00:48:03;;;;;;;6.00;5.47;;;13.00;99.90;;;;;;4899643;29;20437;-91
2021/10/14 00:50:37;;;;;;;6.07;5.57;;;14.70;99.90;;;;;;4901476;29;20493;-91
2021/10/14 00:53:18;;;;;;;6.53;5.40;;;10.90;97.80;;;;;;4900277;29;20485;-91
2021/10/14 00:55:54;;;;;;;6.30;5.20;;;12.30;99.90;;;;;;4900060;29;20470;-92
2021/10/14 00:58:20;;;;;;;7.67;5.60;;;;;;;;;;4886616;29;20436;-90
2021/10/14 01:00:50;;;;;;;10.07;6.53;;;11.90;97.90;;;;;;4899169;29;20467;-90
2021/10/14 01:03:16;;;;;;;9.67;5.00;;;;;;;;;;4899204;29;20472;-90
2021/10/14 01:05:42;;;;;;;6.97;5.53;;;11.90;97.70;;;;;;4900640;29;20389;-91
2021/10/14 01:08:08;;;;;;;5.80;5.30;;;13.90;98.80;;;;;;4902894;29;20414;-91
2021/10/14 01:10:34;;;;;;;5.47;4.93;;;11.70;99.90;;;;;;4899076;29;20676;-90
2021/10/14 01:13:02;;;;;;;9.30;6.00;;;10.60;99.90;;;;;;4897395;29;20449;-90
2021/10/14 01:15:50;;;;;;;11.80;6.63;;;13.00;99.70;;;;;;4895946;29;20217;-91
2021/10/14 01:18:16;;;;;;;6.40;5.80;;;12.00;97.90;;;;;;4896283;29;20418;-91
2021/10/14 01:20:43;;;;;;;6.27;5.67;;;12.10;99.90;;;;;;4900474;29;20521;-91
2021/10/14 01:23:12;;;;;;;7.10;6.60;;;12.90;99.90;;;;;;4900111;29;20185;-91
2021/10/14 01:25:44;;;;;;;6.07;5.77;;;14.20;99.90;;;;;;4900299;29;20430;-90
2021/10/14 01:28:26;;;;;;;5.53;5.23;;;12.70;98.30;;;;;;4899181;29;20418;-91
2021/10/14 01:31:20;;;;;;;7.43;6.17;;;11.20;97.70;;;;;;4883839;29;20410;-92
2021/10/14 01:34:08;;;;;;;7.20;6.50;;;12.50;97.50;;;;;;4898748;29;20518;-92
2021/10/14 01:36:54;;;;;;;7.07;6.60;;;11.70;97.70;;;;;;4897317;29;20478;-92
2021/10/14 01:39:27;;;;;;;9.80;5.90;;;13.10;99.90;;;;;;4899798;29;20430;-93
2021/10/14 01:41:56;;;;;;;9.23;6.33;;;12.50;98.80;;;;;;4900454;29;20478;-91
2021/10/14 01:44:26;;;;;;;7.37;6.63;;;11.60;97.80;;;;;;4898513;29;20434;-91
2021/10/14 01:46:55;;;;;;;8.40;7.07;;;11.70;99.90;;;;;;4899169;29;20478;-91
2021/10/14 01:49:23;;;;;;;7.10;6.40;;;12.70;99.90;;;;;;4901866;29;20437;-90
2021/10/14 01:51:49;;;;;;;7.73;7.00;;;;;;;;;;4899975;29;20433;-91
2021/10/14 01:54:18;;;;;;;9.03;7.77;;;11.20;99.80;;;;;;4895178;29;20430;-91
2021/10/14 01:56:55;;;;;;;10.67;6.33;;;11.80;99.90;;;;;;4900680;29;20445;-90
2021/10/14 01:59:25;;;;;;;8.40;6.77;;;11.00;99.90;;;;;;4901223;29;20437;-91
2021/10/14 02:01:55;;;;;;;10.37;7.40;;;11.40;99.90;;;;;;4899120;29;20418;-91
2021/10/14 02:04:24;;;;;;;8.63;7.60;;;12.40;99.90;;;;;;4900797;29;20433;-89
2021/10/14 02:07:03;;;;;;;9.03;7.30;;;12.50;99.90;;;;;;4901185;29;20422;-93
2021/10/14 02:09:30;;;;;;;11.37;9.60;;;;;;;;;;4897667;29;20437;-90
2021/10/14 02:11:58;;;;;;;10.80;9.53;;;;;;;;;;4895889;29;20429;-92
2021/10/14 02:14:34;;;;;;;13.43;9.13;;;10.70;99.90;;;;;;4896497;29;20457;-92
2021/10/14 02:17:00;;;;;;;9.87;8.83;;;;;;;;;;4897379;29;20406;-91
2021/10/14 02:19:28;;;;;;;12.70;8.40;;;;;;;;;;4895220;29;20422;-91
2021/10/14 02:21:54;;;;;;;9.33;8.33;;;;;;;;;;4895595;29;20514;-89
2021/10/14 02:24:21;;;;;;;9.03;8.13;;;10.40;99.90;;;;;;4891533;29;20414;-88
2021/10/14 02:26:50;;;;;;;11.80;9.97;;;10.50;99.90;;;;;;4889472;29;20429;-90
2021/10/14 02:29:16;;;;;;;14.90;9.97;;;;;;;;;;4890951;29;20434;-90
2021/10/14 02:31:42;;;;;;;10.77;8.83;;;;;;;;;;4888124;29;20422;-89
2021/10/14 02:34:13;;;;;;;14.50;11.67;;;10.30;99.90;;;;;;4887825;29;20484;-89
2021/10/14 02:36:50;;;;;;;14.20;11.30;;;10.60;99.90;;;;;;4893448;29;20446;-90
2021/10/14 02:39:16;;;;;;;15.07;11.33;;;;;;;;;;4892027;29;20448;-90
2021/10/14 02:41:45;;;;;;;10.67;9.67;;;10.20;99.90;;;;;;4894082;29;20469;-91
2021/10/14 02:44:11;;;;;;;12.00;10.80;;;;;;;;;;4894520;29;20410;-90
2021/10/14 02:46:39;;;;;;;14.90;10.60;;;10.30;99.90;;;;;;4891666;29;20430;-91
2021/10/14 02:49:05;;;;;;;15.83;11.93;;;;;;;;;;4891702;29;20422;-90
2021/10/14 02:51:32;;;;;;;13.93;11.70;;;;;;;;;;4894025;29;20421;-90
2021/10/14 02:53:58;;;;;;;22.17;10.80;;;10.10;99.90;;;;;;4889048;29;20414;-90
2021/10/14 02:56:24;;;;;;;17.13;11.07;;;;;;;;;;4872568;29;20537;-91
2021/10/14 02:58:50;;;;;;;18.77;13.90;;;;;;;;;;4887606;29;20418;-91
2021/10/14 03:01:16;;;;;;;19.63;11.87;;;;;;;;;;4893749;29;20422;-90
2021/10/14 03:03:42;;;;;;;21.30;15.27;;;;;;;;;;4888556;29;20406;-91
2021/10/14 03:06:14;;;;;;;19.97;14.00;;;10.00;99.90;;;;;;4894345;29;20430;-93
2021/10/14 03:08:40;;;;;;;22.93;15.70;;;10.20;99.90;;;;;;4892749;29;20422;-93
2021/10/14 03:11:06;;;;;;;19.40;14.50;;;;;;;;;;4895111;29;20518;-90
2021/10/14 03:13:32;;;;;;;17.23;13.90;;;10.00;99.90;;;;;;4892302;29;20418;-90
2021/10/14 03:16:04;;;;;;;17.17;13.63;;;;;;;;;;4890086;29;20476;-91
2021/10/14 03:18:31;;;;;;;14.67;12.80;;;10.10;99.90;;;;;;4892631;29;20402;-91
2021/10/14 03:21:06;;;;;;;20.53;15.10;;;;;;;;;;4893110;29;20430;-92
2021/10/14 03:23:48;;;;;;;14.80;13.30;;;10.10;99.90;;;;;;4892864;29;20434;-92
2021/10/14 03:26:19;;;;;;;19.70;15.17;;;10.00;99.90;;;;;;4893784;29;20426;-91
2021/10/14 03:28:45;;;;;;;17.13;14.43;;;;;;;;;;4893089;29;20430;-90
2021/10/14 03:31:18;;;;;;;17.67;15.50;;;10.00;99.90;;;;;;4892300;29;20522;-91
2021/10/14 03:33:46;;;;;;;23.33;15.00;;;;;;;;;;4895013;29;20486;-92
2021/10/14 03:36:12;;;;;;;20.07;15.77;;;10.30;99.90;;;;;;4895945;29;20565;-90
2021/10/14 03:38:38;;;;;;;25.93;15.30;;;;;;;;;;4893369;29;20489;-89
2021/10/14 03:41:06;;;;;;;19.10;15.13;;;10.20;99.90;;;;;;4893766;29;20426;-91
2021/10/14 03:43:32;;;;;;;20.90;14.50;;;10.60;99.90;;;;;;4893532;29;20445;-91
2021/10/14 03:46:04;;;;;;;22.27;14.03;;;10.20;99.90;;;;;;4893561;29;20433;-89
2021/10/14 03:48:33;;;;;;;17.77;15.67;;;9.00;99.90;;;;;;4896015;29;20425;-90
2021/10/14 03:50:59;;;;;;;28.77;16.97;;;;;;;;;;4893687;29;20466;-89
2021/10/14 03:53:25;;;;;;;19.80;13.90;;;;;;;;;;4894689;29;20492;-91
2021/10/14 03:55:52;;;;;;;18.20;15.30;;;10.50;99.90;;;;;;4896320;29;20453;-90
2021/10/14 03:58:25;;;;;;;18.33;15.03;;;12.30;99.90;;;;;;4899530;29;20455;-89
2021/10/14 04:00:53;;;;;;;22.83;14.97;;;13.80;99.90;;;;;;4883739;29;20457;-91
2021/10/14 04:03:22;;;;;;;17.07;13.67;;;10.70;99.90;;;;;;4895263;29;20430;-90
2021/10/14 04:05:59;;;;;;;19.70;15.20;;;10.50;99.90;;;;;;4889926;29;20477;-90
2021/10/14 04:08:37;;;;;;;23.03;15.40;;;10.60;99.90;;;;;;4879014;29;20514;-90
2021/10/14 04:11:03;;;;;;;17.73;14.03;;;;;;;;;;4896502;29;20432;-91
2021/10/14 04:13:36;;;;;;;23.93;16.70;;;10.50;99.90;;;;;;4896198;29;20397;-90
2021/10/14 04:16:02;;;;;;;24.73;19.27;;;11.80;99.90;;;;;;4895646;29;20482;-91
2021/10/14 04:18:34;;;;;;;23.83;17.90;;;11.50;99.90;;;;;;4894925;29;20463;-91
2021/10/14 04:21:04;;;;;;;28.03;16.77;;;10.30;99.90;;;;;;4894082;29;20410;-90
2021/10/14 04:23:43;;;;;;;23.03;18.17;;;12.80;99.90;;;;;;4894266;29;20434;-92
2021/10/14 04:26:11;;;;;;;32.13;19.02;;;11.80;99.90;;;;;;4900804;29;20401;-90
2021/10/14 04:28:45;;;;;;;27.30;20.83;;;10.90;99.90;;;;;;4884002;29;20192;-91
2021/10/14 04:31:13;;;;;;;31.60;21.77;;;11.90;99.90;;;;;;4900174;29;20556;-91
2021/10/14 04:33:39;;;;;;;34.70;22.10;;;9.80;99.90;;;;;;4899901;29;20461;-89
2021/10/14 04:36:05;;;;;;;26.40;21.10;;;;;;;;;;4899746;29;20470;-90
2021/10/14 04:38:32;;;;;;;27.87;21.93;;;10.30;99.90;;;;;;4900219;29;20173;-91
2021/10/14 04:41:03;;;;;;;30.70;20.50;;;9.60;99.90;;;;;;4896892;29;20439;-91
2021/10/14 04:43:32;;;;;;;27.43;18.57;;;11.70;99.90;;;;;;4881147;29;20438;-93
2021/10/14 04:45:58;;;;;;;39.00;25.50;;;;;;;;;;4898117;29;20442;-90
2021/10/14 04:48:24;;;;;;;29.63;20.53;;;;;;;;;;4896871;29;20418;-90
2021/10/14 04:51:06;;;;;;;33.63;23.33;;;10.50;99.90;;;;;;4894705;29;20437;-93
2021/10/14 04:53:32;;;;;;;32.30;22.13;;;;;;;;;;4894051;29;21120;-90
2021/10/14 04:55:58;;;;;;;34.67;24.43;;;;;;;;;;4898340;29;20518;-90
2021/10/14 04:58:51;;;;;;;31.73;22.33;;;10.60;99.90;;;;;;4895843;29;20425;-92
2021/10/14 05:01:30;;;;;;;36.37;20.50;;;13.00;99.90;;;;;;4901110;29;20442;-91
2021/10/14 05:03:57;;;;;;;34.60;22.80;;;10.00;99.90;;;;;;4898760;29;20502;-89
2021/10/14 05:06:23;;;;;;;34.50;20.60;;;12.10;99.90;;;;;;4898494;29;20414;-90
2021/10/14 05:08:49;;;;;;;46.63;21.80;;;;;;;;;;4898317;29;20442;-90
2021/10/14 05:11:15;;;;;;;39.27;21.13;;;;;;;;;;4898245;29;20181;-88
2021/10/14 05:13:50;;;;;;;28.50;20.63;;;10.70;99.90;;;;;;4899636;29;20418;-91
2021/10/14 05:16:16;;;;;;;28.17;21.70;;;;;;;;;;4894226;29;20472;-92
2021/10/14 05:18:45;;;;;;;34.13;18.87;;;10.60;99.90;;;;;;4897691;29;20420;-89
2021/10/14 05:21:11;;;;;;;33.70;20.50;;;10.50;99.90;;;;;;4881130;29;20437;-90
2021/10/14 05:23:36;;;;;;;29.00;19.20;;;10.10;99.90;;;;;;4896045;29;20482;-88
2021/10/14 05:26:02;;;;;;;34.03;22.53;;;;;;;;;;4898540;29;20185;-90
2021/10/14 05:29:01;;;;;;;;;;;;;;;;;;;;;
2021/10/14 05:31:32;;;;;;;26.80;18.63;;;11.40;99.90;;;;;;4895562;29;20994;-88
2021/10/14 05:33:58;;;;;;;27.30;19.70;;;10.70;99.90;;;;;;4879474;29;20473;-89
2021/10/14 05:36:35;;;;;;;31.50;19.77;;;13.50;99.90;;;;;;4896860;29;20461;-91
2021/10/14 05:39:01;;;;;;;31.43;18.60;;;;;;;;;;4897523;29;20172;-91
2021/10/14 05:41:27;;;;;;;30.80;19.37;;;;;;;;;;4896453;29;20438;-90
2021/10/14 05:44:03;;;;;;;24.20;21.17;;;10.70;99.90;;;;;;4895778;29;20460;-91
2021/10/14 05:46:29;;;;;;;31.37;21.10;;;10.60;99.90;;;;;;4893955;29;20902;-90
2021/10/14 05:48:55;;;;;;;34.33;21.83;;;;;;;;;;4893309;29;20437;-89
2021/10/14 05:51:33;;;;;;;28.23;18.23;;;10.70;99.90;;;;;;4894452;29;20176;-92
2021/10/14 05:54:07;;;;;;;30.00;19.53;;;12.50;99.90;;;;;;4891835;29;20437;-90
2021/10/14 05:56:34;;;;;;;23.37;16.70;;;11.20;99.90;;;;;;4895294;29;20458;-90
2021/10/14 05:59:01;;;;;;;23.70;17.93;;;11.00;99.90;;;;;;4895115;29;20410;-90
2021/10/14 06:01:27;;;;;;;24.17;19.20;;;12.30;99.90;;;;;;4893680;29;20420;-89
2021/10/14 06:03:54;;;;;;;27.23;16.90;;;;;;;;;;4896631;29;20418;-86
2021/10/14 06:06:21;;;;;;;25.87;16.80;;;10.90;99.90;;;;;;4899210;29;20457;-91
2021/10/14 06:09:00;;;;;;;25.97;18.93;;;11.10;99.90;;;;;;4895726;29;20486;-89
2021/10/14 06:11:26;;;;;;;22.27;16.73;;;;;;;;;;4897465;29;20490;-90
2021/10/14 06:13:52;;;;;;;26.40;17.87;;;;;;;;;;4897860;29;20418;-90
2021/10/14 06:16:21;;;;;;;23.83;19.47;;;10.80;99.90;;;;;;4894197;29;20667;-90
2021/10/14 06:18:47;;;;;;;20.47;17.30;;;13.20;99.90;;;;;;4895392;29;20441;-90
2021/10/14 06:21:22;;;;;;;31.93;16.33;;;10.90;99.90;;;;;;4877637;29;20425;-90
2021/10/14 06:23:50;;;;;;;28.70;17.37;;;11.00;99.90;;;;;;4895587;29;20183;-89
2021/10/14 06:26:19;;;;;;;28.37;18.37;;;10.50;99.90;;;;;;4896892;29;20425;-89
2021/10/14 06:28:45;;;;;;;28.93;19.27;;;;;;;;;;4897424;29;20501;-91
2021/10/14 06:31:15;;;;;;;30.00;19.53;;;10.70;99.90;;;;;;4556464;29;10000121;-90
2021/10/14 06:33:41;;;;;;;26.83;18.97;;;;;;;;;;4881470;29;20297;-88
2021/10/14 06:36:16;;;;;;;25.43;19.33;;;10.70;99.90;;;;;;4893762;29;20489;-92
2021/10/14 06:38:43;;;;;;;30.40;19.87;;;12.40;99.90;;;;;;4891541;29;20505;-90
2021/10/14 06:41:14;;;;;;;28.50;19.67;;;;;;;;;;4894704;29;20453;-90
2021/10/14 06:43:40;;;;;;;32.20;20.83;;;;;;;;;;4892489;29;20441;-91
2021/10/14 06:46:06;;;;;;;28.90;19.87;;;;;;;;;;4886857;29;20950;-92
2021/10/14 06:48:32;;;;;;;28.13;19.17;;;;;;;;;;4886726;29;20486;-92
2021/10/14 06:50:58;;;;;;;27.80;18.43;;;10.70;99.90;;;;;;4885408;29;20449;-91
2021/10/14 06:53:25;;;;;;;25.47;17.53;;;11.30;99.90;;;;;;4884002;29;20946;-91
2021/10/14 06:55:51;;;;;;;26.20;20.40;;;;;;;;;;4883366;29;20500;-92
2021/10/14 06:58:17;;;;;;;26.00;19.47;;;10.70;99.90;;;;;;4884730;29;20407;-90
2021/10/14 07:00:42;;;;;;;29.50;19.70;;;10.70;99.90;;;;;;4882224;29;20801;-91
2021/10/14 07:03:08;;;;;;;34.73;22.47;;;10.60;99.90;;;;;;4887269;29;20426;-90
2021/10/14 07:05:37;;;;;;;36.53;22.83;;;;;;;;;;4868633;29;20205;-91
2021/10/14 07:08:03;;;;;;;41.20;22.50;;;10.60;99.90;;;;;;4884059;29;20421;-90
2021/10/14 07:10:29;;;;;;;33.33;22.37;;;;;;;;;;4882940;29;20478;-92
2021/10/14 07:12:56;;;;;;;36.47;23.30;;;10.50;99.90;;;;;;4886854;29;20418;-90
2021/10/14 07:15:22;;;;;;;32.10;21.30;;;;;;;;;;4889674;29;20473;-91
2021/10/14 07:17:48;;;;;;;35.43;23.53;;;10.70;99.90;;;;;;4885857;29;20441;-92
2021/10/14 07:20:14;;;;;;;32.90;21.30;;;;;;;;;;4881885;29;20896;-93
2021/10/14 07:22:41;;;;;;;31.33;23.10;;;10.60;99.90;;;;;;4884791;29;20410;-91
2021/10/14 07:25:10;;;;;;;41.67;26.27;;;12.10;99.90;;;;;;4887301;29;20485;-91
2021/10/14 07:27:36;;;;;;;47.00;26.87;;;12.70;99.90;;;;;;4889705;29;20447;-89
2021/10/14 07:30:03;;;;;;;44.97;26.83;;;12.40;99.90;;;;;;4873363;29;20426;-90
2021/10/14 07:32:29;;;;;;;38.97;24.70;;;;;;;;;;4873739;29;20422;-88
2021/10/14 07:34:55;;;;;;;42.80;28.00;;;;;;;;;;4890136;29;20925;-89
2021/10/14 07:37:21;;;;;;;33.60;23.20;;;10.70;99.90;;;;;;4889432;29;20421;-91
2021/10/14 07:39:47;;;;;;;43.53;28.97;;;;;;;;;;4879931;29;20424;-91
2021/10/14 07:42:13;;;;;;;44.00;27.07;;;;;;;;;;4875584;29;20882;-93
2021/10/14 07:44:39;;;;;;;41.87;25.10;;;;;;;;;;4885327;29;20835;-90
2021/10/14 07:47:05;;;;;;;40.43;26.23;;;10.80;99.90;;;;;;4884722;29;20410;-91
2021/10/14 07:49:31;;;;;;;47.07;29.27;;;11.70;99.90;;;;;;4882824;29;20413;-90
2021/10/14 07:51:57;;;;;;;50.97;28.17;;;;;;;;;;4880250;29;20455;-91
2021/10/14 07:54:23;;;;;;;62.70;31.47;;;;;;;;;;4880545;29;20188;-92
2021/10/14 07:56:49;;;;;;;61.53;29.03;;;;;;;;;;4883196;29;20926;-85
2021/10/14 07:59:15;;;;;;;48.23;29.00;;;10.80;99.90;;;;;;4879852;29;20425;-91
2021/10/14 08:01:45;;;;;;;52.50;30.17;;;10.70;99.90;;;;;;4881451;29;20446;-89
2021/10/14 08:04:12;;;;;;;55.00;29.20;;;;;;;;;;4881792;29;20200;-90
2021/10/14 08:06:39;;;;;;;49.97;30.13;;;10.90;99.90;;;;;;4881574;29;20426;-90
2021/10/14 08:09:04;;;;;;;52.43;29.50;;;10.80;99.90;;;;;;4881097;29;20462;-90
2021/10/14 08:11:33;;;;;;;55.77;31.30;;;10.90;99.90;;;;;;4882044;29;20422;-91
2021/10/14 08:14:01;;;;;;;60.00;30.83;;;13.30;99.90;;;;;;4880771;29;20641;-90
2021/10/14 08:16:29;;;;;;;58.10;29.73;;;11.50;99.90;;;;;;4879587;29;20485;-91
2021/10/14 08:18:56;;;;;;;52.73;30.90;;;;;;;;;;4879131;29;20429;-91
2021/10/14 08:21:29;;;;;;;58.70;31.90;;;11.00;99.90;;;;;;4881446;29;20520;-89
2021/10/14 08:23:55;;;;;;;53.77;31.50;;;;;;;;;;4881404;29;20426;-91
2021/10/14 08:26:21;;;;;;;63.63;32.97;;;;;;;;;;4880239;29;20429;-94
2021/10/14 08:28:47;;;;;;;62.13;33.30;;;;;;;;;;4880363;29;20437;-91
2021/10/14 08:31:15;;;;;;;62.80;33.40;;;;;;;;;;4873407;29;20448;-90
2021/10/14 08:33:41;;;;;;;52.10;29.70;;;;;;;;;;4886685;29;20478;-91
2021/10/14 08:36:17;;;;;;;55.33;31.00;;;11.00;99.90;;;;;;4886404;29;20476;-91
2021/10/14 08:38:43;;;;;;;62.43;31.50;;;11.10;99.90;;;;;;4885350;29;20475;-90
2021/10/14 08:41:13;;;;;;;57.60;33.17;;;14.50;99.90;;;;;;4883573;29;20430;-91
2021/10/14 08:43:39;;;;;;;49.77;29.50;;;;;;;;;;4883381;29;20238;-94
2021/10/14 08:46:05;;;;;;;57.43;28.93;;;11.20;99.90;;;;;;4901818;29;20448;-90
2021/10/14 08:48:31;;;;;;;49.80;28.87;;;12.80;99.90;;;;;;4901809;29;20998;-92
2021/10/14 08:50:57;;;;;;;50.90;28.90;;;;;;;;;;4899558;29;20181;-89
2021/10/14 08:53:23;;;;;;;63.67;31.83;;;;;;;;;;4903148;29;20504;-92
2021/10/14 08:55:49;;;;;;;45.03;25.60;;;;;;;;;;4218682;29;10000624;-92
2021/10/14 08:58:15;;;;;;;51.87;31.00;;;11.20;99.90;;;;;;4879483;29;20260;-91
2021/10/14 09:01:02;;;;;;;52.07;30.37;;;11.30;99.90;;;;;;4877306;29;20435;-92
2021/10/14 09:03:31;;;;;;;52.93;27.50;;;13.00;99.90;;;;;;4863481;29;20188;-90
2021/10/14 09:05:58;;;;;;;42.13;28.37;;;11.00;99.90;;;;;;4863549;29;20567;-90
2021/10/14 09:08:49;;;;;;;46.93;29.10;;;14.30;99.90;;;;;;4879906;29;20442;-91
2021/10/14 09:11:28;;;;;;;55.20;29.90;;;12.80;99.90;;;;;;4881763;29;20842;-92
2021/10/14 09:14:03;;;;;;;56.77;31.60;;;11.30;99.90;;;;;;4862428;29;20434;-90
2021/10/14 09:16:41;;;;;;;49.97;29.47;;;12.60;99.90;;;;;;4852356;29;21064;-90
2021/10/14 09:19:15;;;;;;;47.67;25.03;;;11.50;99.90;;;;;;4863085;29;20517;-92
2021/10/14 09:21:43;;;;;;;49.50;30.80;;;11.50;99.90;;;;;;4879063;29;20447;-91
2021/10/14 09:24:43;;;;;;;48.17;31.23;;;12.70;99.90;;;;;;4867754;29;20948;-90
2021/10/14 09:27:19;;;;;;;47.50;29.63;;;10.20;99.90;;;;;;4884281;29;20430;-94
2021/10/14 09:29:44;;;;;;;44.07;26.20;;;11.10;99.90;;;;;;4864416;29;20433;-93
2021/10/14 09:32:15;;;;;;;62.47;32.97;;;12.80;99.90;;;;;;4882297;29;20441;-91
2021/10/14 09:34:42;;;;;;;57.90;32.03;;;10.10;99.90;;;;;;4882291;29;20713;-93
2021/10/14 09:37:14;;;;;;;56.57;32.63;;;14.10;99.90;;;;;;4886449;29;20410;-89
2021/10/14 09:40:02;;;;;;;53.33;30.50;;;11.50;99.90;;;;;;4884648;29;20438;-87
2021/10/14 09:43:02;;;;;;;53.37;30.40;;;11.50;99.90;;;;;;4884996;29;20422;-93
2021/10/14 09:45:31;;;;;;;40.90;25.53;;;11.50;99.90;;;;;;4825992;29;20433;-92
2021/10/14 09:48:08;;;;;;;55.03;30.90;;;14.30;99.90;;;;;;4884536;29;20422;-91
2021/10/14 09:50:46;;;;;;;47.00;27.10;;;11.50;99.90;;;;;;4882857;29;20434;-93
2021/10/14 09:53:19;;;;;;;50.07;31.77;;;11.60;99.90;;;;;;4882486;29;20430;-91
2021/10/14 09:55:47;;;;;;;43.40;29.10;;;11.50;99.90;;;;;;4882845;29;20556;-90
2021/10/14 09:58:16;;;;;;;55.83;31.67;;;11.60;99.90;;;;;;4883503;29;20502;-88
2021/10/14 10:00:43;;;;;;;44.63;29.83;;;13.00;99.90;;;;;;4868635;29;20437;-90
2021/10/14 10:03:24;;;;;;;39.70;27.17;;;12.70;99.90;;;;;;4868976;29;20422;-89
2021/10/14 10:05:51;;;;;;;38.67;24.20;;;11.70;99.90;;;;;;4863974;29;20447;-91
2021/10/14 10:08:34;;;;;;;38.63;25.30;;;11.30;99.90;;;;;;4871021;29;20467;-91
2021/10/14 10:11:16;;;;;;;;;;;;;;;;;;;;;
2021/10/14 10:14:01;;;;;;;44.17;28.60;;;13.00;99.90;;;;;;4888661;29;20485;-91
2021/10/14 10:19:52;;;;;;;37.23;24.43;;;14.50;99.90;;;;;;4889502;29;20406;-90
2021/10/14 10:22:56;;;;;;;31.93;23.13;;;12.30;99.90;;;;;;4874116;29;20426;-91
2021/10/14 10:25:30;;;;;;;34.30;23.50;;;11.70;99.90;;;;;;4875039;29;20424;-89
2021/10/14 10:27:58;;;;;;;41.47;26.87;;;12.00;99.90;;;;;;4891711;29;20480;-88
2021/10/14 10:30:40;;;;;;;38.10;25.70;;;13.50;99.90;;;;;;4871339;29;20426;-90
2021/10/14 10:33:08;;;;;;;36.57;23.33;;;13.50;99.90;;;;;;4876383;29;20569;-90
2021/10/14 10:35:47;;;;;;;44.07;26.57;;;12.80;99.90;;;;;;4897305;29;20485;-89
2021/10/14 10:38:18;;;;;;;43.10;26.53;;;14.60;99.90;;;;;;4877828;29;20429;-90
2021/10/14 10:40:47;;;;;;;34.53;24.27;;;11.80;99.90;;;;;;4875305;29;20434;-90
2021/10/14 10:43:42;;;;;;;33.43;20.23;;;11.90;99.90;;;;;;4876249;29;20445;-92
2021/10/14 10:46:16;;;;;;;36.07;24.40;;;14.80;99.90;;;;;;4885656;29;20430;-90
2021/10/14 10:48:43;;;;;;;42.00;26.30;;;13.40;99.90;;;;;;4884974;29;20422;-90
2021/10/14 10:51:28;;;;;;;31.73;23.20;;;14.00;99.90;;;;;;4867501;29;20442;-92
2021/10/14 10:54:00;;;;;;;37.97;23.53;;;12.90;99.90;;;;;;4869780;29;20422;-94
2021/10/14 10:56:34;;;;;;;27.90;22.20;;;12.00;99.90;;;;;;4886869;29;20477;-92
2021/10/14 10:59:09;;;;;;;30.97;21.40;;;10.60;99.90;;;;;;4884419;29;20445;-93
2021/10/14 11:01:36;;;;;;;31.30;21.50;;;14.20;99.90;;;;;;4884811;29;20437;-90
2021/10/14 11:04:04;;;;;;;35.67;22.70;;;14.00;99.90;;;;;;4884649;29;20478;-93
2021/10/14 11:06:46;;;;;;;;;;;;;;;;;;;;;
2021/10/14 11:09:15;;;;;;;27.90;19.93;;;12.50;99.90;;;;;;4887418;29;20504;-92
2021/10/14 11:11:50;;;;;;;30.63;20.83;;;13.00;99.90;;;;;;4870359;29;20437;-92
2021/10/14 11:14:15;;;;;;;24.97;20.23;;;13.30;99.90;;;;;;4885819;29;20421;-93
2021/10/14 11:16:41;;;;;;;31.33;19.63;;;;;;;;;;4885444;29;21004;-92
2021/10/14 11:19:28;;;;;;;;;;;;;;;;;;;;;
2021/10/14 11:21:54;;;;;;;20.60;17.63;;;;;;;;;;4888040;29;20514;-94
2021/10/14 11:24:23;;;;;;;26.40;19.37;;;12.80;99.90;;;;;;4886530;29;20852;-94
2021/10/14 11:26:51;;;;;;;26.60;20.30;;;13.50;99.90;;;;;;4886079;29;20485;-90
2021/10/14 11:29:18;;;;;;;23.33;17.57;;;12.90;99.90;;;;;;4550425;29;9999740;-91
2021/10/14 11:34:55;;;;;;;25.37;19.80;;;13.10;99.90;;;;;;4837739;29;20604;-94
2021/10/14 11:37:46;;;;;;;24.40;18.50;;;;;;;;;;4924115;23;20417;-92
2021/10/14 11:40:16;;;;;;;23.83;16.13;;;13.00;99.90;;;;;;4893073;29;20446;-93
2021/10/14 11:43:22;;;;;;;23.47;17.53;;;13.60;99.90;;;;;;4897304;29;20417;-93
2021/10/14 11:45:51;;;;;;;20.13;15.90;;;11.80;99.90;;;;;;4880346;29;20414;-93
2021/10/14 11:48:45;;;;;;;23.07;18.33;;;13.50;99.90;;;;;;4877206;29;20476;-93
2021/10/14 11:51:31;;;;;;;25.43;18.33;;;13.00;99.90;;;;;;4881694;29;20452;-92
2021/10/14 11:53:59;;;;;;;23.93;16.70;;;14.20;99.90;;;;;;4889840;29;20496;-90
2021/10/14 11:56:26;;;;;;;24.93;17.70;;;15.00;99.90;;;;;;4892568;29;20469;-92
2021/10/14 11:59:27;;;;;;;18.37;16.37;;;12.70;99.90;;;;;;4889690;29;20421;-94
2021/10/14 12:01:59;;;;;;;16.67;14.63;;;14.40;99.90;;;;;;4875432;29;20457;-92
2021/10/14 12:04:53;;;;;;;19.90;15.30;;;15.70;99.90;;;;;;4891726;29;20410;-94
2021/10/14 12:07:27;;;;;;;17.70;13.57;;;14.20;99.90;;;;;;4878063;29;20470;-92
2021/10/14 12:09:54;;;;;;;18.10;13.30;;;16.30;99.90;;;;;;4894835;29;20438;-91
2021/10/14 12:12:29;;;;;;;19.83;15.30;;;14.10;99.90;;;;;;4894200;29;20440;-90
2021/10/14 12:15:06;;;;;;;19.13;13.43;;;14.20;99.90;;;;;;4876682;29;20461;-93
2021/10/14 12:18:06;;;;;;;17.90;14.53;;;14.60;99.90;;;;;;4893986;29;20456;-92
2021/10/14 12:20:31;;;;;;;19.70;14.53;;;14.60;99.90;;;;;;4873409;29;20977;-90
2021/10/14 12:23:08;;;;;;;18.33;14.83;;;14.40;99.90;;;;;;4893269;29;20427;-92
2021/10/14 12:25:38;;;;;;;19.60;15.43;;;14.70;99.90;;;;;;4876756;29;20515;-93
2021/10/14 12:28:06;;;;;;;21.33;14.10;;;14.30;99.90;;;;;;4892111;29;20436;-93
2021/10/14 12:30:35;;;;;;;14.30;12.50;;;15.20;99.90;;;;;;4875232;29;20421;-92
2021/10/14 12:33:36;;;;;;;16.20;13.60;;;14.60;99.90;;;;;;4875632;29;20462;-92
2021/10/14 12:36:01;;;;;;;14.03;12.60;;;15.10;99.90;;;;;;4889976;29;20486;-87
2021/10/14 12:38:49;;;;;;;16.73;12.87;;;16.60;99.90;;;;;;4890837;29;21091;-92
2021/10/14 12:41:16;;;;;;;16.73;15.03;;;14.50;99.90;;;;;;4879357;29;20241;-86
2021/10/14 12:43:59;;;;;;;15.97;12.63;;;15.80;99.90;;;;;;4876373;29;20422;-95
2021/10/14 12:46:39;;;;;;;16.90;14.53;;;14.80;99.90;;;;;;4881997;29;20510;-91
2021/10/14 12:55:03;;;;;;;16.70;13.00;;;16.20;99.90;;;;;;4885042;29;20422;-92
2021/10/14 12:57:32;;;;;;;15.40;13.30;;;15.30;99.90;;;;;;4879405;29;20436;-94
2021/10/14 13:00:09;;;;;;;16.03;10.63;;;14.70;99.90;;;;;;4878685;29;20516;-93
2021/10/14 13:02:46;;;;;;;18.80;12.63;;;15.10;99.90;;;;;;4896410;29;20496;-91
2021/10/14 13:05:11;;;;;;;15.00;11.70;;;18.00;99.90;;;;;;4882337;29;20425;-90
2021/10/14 13:07:51;;;;;;;12.90;11.73;;;15.60;99.90;;;;;;4901320;29;20482;-92
2021/10/14 13:10:25;;;;;;;16.37;12.70;;;15.50;99.90;;;;;;4900855;29;20207;-93
2021/10/14 13:12:50;;;;;;;14.23;12.57;;;16.90;99.90;;;;;;4886592;29;20410;-90
2021/10/14 13:15:21;;;;;;;15.30;12.73;;;15.90;99.90;;;;;;4882495;29;20465;-93
2021/10/14 13:17:52;;;;;;;13.83;11.87;;;15.50;99.90;;;;;;4880614;29;20483;-90
2021/10/14 13:20:28;;;;;;;15.30;10.93;;;16.70;99.90;;;;;;4881852;29;20418;-91
2021/10/14 13:23:14;;;;;;;11.03;9.93;;;15.50;99.90;;;;;;4899160;29;20429;-93
2021/10/14 13:25:45;;;;;;;13.07;11.17;;;16.20;99.90;;;;;;4882351;29;20422;-92
2021/10/14 13:28:16;;;;;;;17.10;11.80;;;16.90;99.90;;;;;;4883002;29;20447;-91
2021/10/14 13:31:22;;;;;;;13.53;11.40;;;17.70;99.90;;;;;;4879533;29;20429;-94
2021/10/14 13:37:11;;;;;;;11.47;10.37;;;16.10;99.90;;;;;;4838022;29;20793;-92